Time;durP1;ratioP1;P1;durP2;ratioP2;P2;SDS_P1;SDS_P2;PMS_P1;PMS_P2;Temp;Humidity;BMP_temperature;BMP_pressure;BME280_temperature;BME280_humidity;BME280_pressure;Samples;Min_cycle;Max_cycle;Signal;HPM_P1;HPM_P2
2024/01/02 00:00:00;;;;;;;9.10;5.85;;;;;;;6.02;100.00;100174.03;5033492;28;20373;-72
2024/01/02 00:02:25;;;;;;;10.20;9.65;;;;;;;6.35;100.00;100254.38;5019139;28;20045;-71
2024/01/02 00:04:51;;;;;;;7.70;7.20;;;;;;;5.84;100.00;100183.25;5017089;28;20056;-74
2024/01/02 00:07:16;;;;;;;2.97;2.83;;;;;;;6.43;100.00;100267.53;5018078;28;20041;-71
2024/01/02 00:09:42;;;;;;;5.43;5.18;;;;;;;6.14;100.00;100205.44;5023642;28;20489;-70
2024/01/02 00:12:08;;;;;;;2.45;2.15;;;;;;;6.40;100.00;100259.66;5019901;28;20029;-72
2024/01/02 00:14:34;;;;;;;0.40;0.40;;;;;;;5.98;100.00;100170.47;5025945;28;20045;-72
2024/01/02 00:17:00;;;;;;;2.40;2.20;;;;;;;5.97;100.00;100179.16;5026671;28;20049;-70
2024/01/02 00:19:26;;;;;;;7.80;7.38;;;;;;;5.77;100.00;100159.72;5025941;28;20049;-70
2024/01/02 00:21:52;;;;;;;4.60;4.32;;;;;;;5.92;100.00;100232.84;5033392;28;20771;-74
2024/01/02 00:24:18;;;;;;;15.10;10.45;;;;;;;5.62;100.00;100178.56;5025174;28;20108;-72
2024/01/02 00:26:46;;;;;;;6.97;6.60;;;;;;;6.09;100.00;100243.59;5032868;28;20029;-72
2024/01/02 00:29:12;;;;;;;2.28;2.15;;;;;;;6.25;100.00;100292.47;5032213;28;20052;-71
2024/01/02 00:31:37;;;;;;;7.78;4.07;;;;;;;5.81;100.00;100211.88;5024696;28;20061;-72
2024/01/02 00:34:03;;;;;;;3.70;3.40;;;;;;;6.02;100.00;100293.81;5018736;28;20661;-70
2024/01/02 00:36:28;;;;;;;2.05;1.95;;;;;;;5.83;100.00;100223.19;5014252;28;20056;-70
2024/01/02 00:38:54;;;;;;;2.58;2.38;;;;;;;6.32;100.00;100302.13;5024705;28;20567;-70
2024/01/02 00:41:19;;;;;;;7.15;6.75;;;;;;;5.74;100.00;100197.00;5029009;28;20061;-70
2024/01/02 00:43:45;;;;;;;3.90;3.70;;;;;;;6.33;100.00;100303.00;5026454;28;20052;-71
2024/01/02 00:46:10;;;;;;;27.55;24.85;;;;;;;6.23;100.00;100301.13;5019952;28;20504;-71
2024/01/02 00:48:36;;;;;;;11.80;11.15;;;;;;;6.25;100.00;100286.34;5025068;28;20521;-71
2024/01/02 00:51:02;;;;;;;3.78;3.38;;;;;;;6.29;100.00;100301.19;5022344;28;20533;-72
2024/01/02 00:53:28;;;;;;;1.23;1.13;;;;;;;6.08;100.00;100278.28;5024027;28;20057;-70
2024/01/02 00:55:53;;;;;;;3.75;3.55;;;;;;;5.64;100.00;100201.19;5029574;28;20399;-70
2024/01/02 00:58:19;;;;;;;1.95;1.85;;;;;;;5.42;100.00;100147.88;5028706;28;20145;-73
2024/01/02 01:00:44;;;;;;;3.60;2.35;;;;;;;5.63;100.00;100183.78;5028529;28;20049;-73
2024/01/02 01:03:10;;;;;;;2.15;1.98;;;;;;;5.72;100.00;100194.34;5006716;28;20068;-71
2024/01/02 01:05:35;;;;;;;4.32;4.03;;;;;;;5.72;100.00;100206.50;5019938;28;20045;-72
2024/01/02 01:08:01;;;;;;;3.20;2.40;;;;;;;6.25;100.00;100297.69;5020007;28;20082;-73
2024/01/02 01:10:27;;;;;;;0.73;0.73;;;;;;;6.13;100.00;100287.03;5020504;28;20509;-72
2024/01/02 01:12:52;;;;;;;17.65;16.27;;;;;;;5.73;100.00;100213.44;5022674;28;20065;-70
2024/01/02 01:15:18;;;;;;;15.43;14.60;;;;;;;6.16;100.00;100291.41;5025605;28;20520;-71
2024/01/02 01:17:43;;;;;;;1.80;1.73;;;;;;;6.11;100.00;100299.16;5025947;28;20037;-71
2024/01/02 01:20:09;;;;;;;4.55;4.25;;;;;;;5.59;100.00;100205.41;5021363;28;20077;-72
2024/01/02 01:22:36;;;;;;;6.05;5.75;;;;;;;6.23;100.00;100303.72;5021062;28;20041;-71
2024/01/02 01:25:03;;;;;;;2.20;2.10;;;;;;;6.13;100.00;100302.66;5024495;28;20507;-73
2024/01/02 01:27:29;;;;;;;5.32;4.88;;;;;;;5.76;100.00;100226.53;5018586;28;20147;-71
2024/01/02 01:29:55;;;;;;;4.15;3.95;;;;;;;5.69;100.00;100219.47;5026330;28;20100;-71
2024/01/02 01:32:22;;;;;;;0.35;0.35;;;;;;;5.62;100.00;100225.41;5026411;28;20053;-71
2024/01/02 01:34:49;;;;;;;2.50;2.40;;;;;;;6.15;100.00;100300.97;5021945;28;20371;-72
2024/01/02 01:37:14;;;;;;;7.60;4.97;;;;;;;5.74;100.00;100222.16;5028517;28;20041;-72
2024/01/02 01:39:40;;;;;;;5.95;5.50;;;;;;;6.04;100.00;100313.84;5022360;28;20056;-71
2024/01/02 01:42:05;;;;;;;1.65;1.55;;;;;;;5.79;100.00;100246.53;5014761;28;20036;-71
2024/01/02 01:44:31;;;;;;;1.20;1.10;;;;;;;6.10;100.00;100311.31;5019462;28;20668;-72
2024/01/02 01:46:57;;;;;;;14.48;7.07;;;;;;;5.58;100.00;100195.88;5025961;28;20159;-71
2024/01/02 01:49:22;;;;;;;5.47;5.20;;;;;;;6.15;100.00;100281.88;5019818;28;20524;-71
2024/01/02 01:51:51;;;;;;;5.63;5.32;;;;;;;6.11;100.00;100293.94;5025270;28;20069;-74
2024/01/02 01:54:17;;;;;;;4.68;4.47;;;;;;;6.18;100.00;100303.66;5004475;28;20028;-73
2024/01/02 01:56:43;;;;;;;6.03;5.50;;;;;;;5.50;100.00;100177.53;5019010;28;20034;-71
2024/01/02 01:59:11;;;;;;;1.33;1.23;;;;;;;5.55;100.00;100193.22;5029180;28;20489;-72
2024/01/02 02:01:38;;;;;;;5.50;4.95;;;;;;;6.17;100.00;100293.19;5016870;28;20049;-71
2024/01/02 02:04:04;;;;;;;13.32;12.27;;;;;;;6.24;100.00;100301.13;5030276;28;20472;-71
2024/01/02 02:06:29;;;;;;;13.10;12.10;;;;;;;6.01;100.00;100285.13;5021777;28;20037;-71
2024/01/02 02:08:55;;;;;;;1.73;1.63;;;;;;;5.92;100.00;100244.16;5024114;28;20044;-71
2024/01/02 02:11:20;;;;;;;17.02;13.25;;;;;;;5.83;100.00;100256.13;5021488;28;20085;-71
2024/01/02 02:13:47;;;;;;;1.75;1.65;;;;;;;5.98;100.00;100272.06;5022126;28;20814;-72
2024/01/02 02:16:14;;;;;;;11.90;8.40;;;;;;;6.09;100.00;100296.53;5018110;28;20041;-71
2024/01/02 02:18:40;;;;;;;1.75;1.65;;;;;;;5.51;100.00;100212.22;5020070;28;20053;-72
2024/01/02 02:21:06;;;;;;;7.10;6.78;;;;;;;5.88;100.00;100267.53;5024534;28;20113;-72
2024/01/02 02:23:31;;;;;;;1.20;1.15;;;;;;;5.98;100.00;100279.00;5026683;28;20148;-72
2024/01/02 02:25:57;;;;;;;1.23;1.13;;;;;;;5.91;100.00;100283.19;5022189;28;20133;-71
2024/01/02 02:28:22;;;;;;;0.98;0.93;;;;;;;5.59;100.00;100217.56;5026402;28;20094;-71
2024/01/02 02:30:48;;;;;;;4.22;3.92;;;;;;;5.97;100.00;100292.84;5026711;28;20049;-72
2024/01/02 02:33:14;;;;;;;7.93;6.05;;;;;;;5.70;100.00;100266.34;5010114;28;20041;-71
2024/01/02 02:35:40;;;;;;;6.03;5.65;;;;;;;5.99;100.00;100301.56;5031244;28;20032;-72
2024/01/02 02:38:05;;;;;;;9.43;8.70;;;;;;;5.29;100.00;100177.13;5033771;28;20059;-71
2024/01/02 02:40:30;;;;;;;0.60;0.60;;;;;;;5.48;100.00;100209.59;5034622;28;20392;-72
2024/01/02 02:42:56;;;;;;;1.58;1.48;;;;;;;5.39;100.00;100207.69;5025753;28;20072;-70
2024/01/02 02:45:21;;;;;;;2.53;2.33;;;;;;;5.82;100.00;100306.47;5024399;28;20035;-73
2024/01/02 02:47:47;;;;;;;4.30;4.10;;;;;;;5.60;100.00;100259.22;5028661;28;20080;-72
2024/01/02 02:50:13;;;;;;;0.93;0.93;;;;;;;5.44;100.00;100205.16;5026633;28;20417;-71
2024/01/02 02:52:38;;;;;;;0.80;0.80;;;;;;;5.97;100.00;100287.63;5028468;28;20410;-71
2024/01/02 02:55:04;;;;;;;18.92;7.78;;;;;;;5.36;100.00;100205.03;5008305;28;20056;-70
2024/01/02 02:57:30;;;;;;;2.83;2.72;;;;;;;5.84;100.00;100292.63;5028546;28;20295;-71
2024/01/02 02:59:57;;;;;;;5.95;5.57;;;;;;;5.80;100.00;100285.59;5025777;28;20037;-72
2024/01/02 03:02:22;;;;;;;0.60;0.60;;;;;;;5.21;100.00;100216.03;5032452;28;20421;-73
2024/01/02 03:04:48;;;;;;;3.38;3.00;;;;;;;5.68;100.00;100312.28;5013465;28;20049;-71
2024/01/02 03:07:14;;;;;;;2.15;2.05;;;;;;;5.50;100.00;100309.34;5025650;28;20043;-70
2024/01/02 03:09:43;;;;;;;3.03;2.83;;;;;;;5.72;100.00;100324.53;5027120;28;20105;-72
2024/01/02 03:12:12;;;;;;;13.60;12.52;;;;;;;5.71;100.00;100330.59;5027652;28;20167;-73
2024/01/02 03:14:38;;;;;;;2.60;2.35;;;;;;;5.37;100.00;100270.94;5022730;28;20045;-71
2024/01/02 03:17:04;;;;;;;1.02;0.93;;;;;;;5.60;100.00;100306.09;5019772;28;20052;-70
2024/01/02 03:19:30;;;;;;;3.20;2.58;;;;;;;5.34;100.00;100256.16;5031638;28;20045;-71
2024/01/02 03:21:56;;;;;;;7.13;6.47;;;;;;;5.37;100.00;100255.34;5021969;28;20045;-71
2024/01/02 03:24:22;;;;;;;1.15;1.05;;;;;;;5.82;100.00;100322.09;5029325;28;20033;-71
2024/01/02 03:26:48;;;;;;;0.77;0.77;;;;;;;5.81;100.00;100355.06;5025746;28;20036;-71
2024/01/02 03:29:16;;;;;;;1.15;1.00;;;;;;;5.84;100.00;100352.50;5027495;28;20053;-71
2024/01/02 03:31:42;;;;;;;1.90;1.80;;;;;;;5.65;100.00;100340.88;5013754;28;20084;-72
2024/01/02 03:34:08;;;;;;;0.52;0.52;;;;;;;5.62;100.00;100343.44;5012812;28;20196;-71
2024/01/02 03:36:34;;;;;;;0.75;0.75;;;;;;;5.32;100.00;100270.88;5011013;28;20061;-72
2024/01/02 03:38:59;;;;;;;1.35;0.95;;;;;;;5.65;100.00;100325.25;5025711;28;20500;-73
2024/01/02 03:41:25;;;;;;;0.98;0.95;;;;;;;5.70;100.00;100336.63;5030688;28;20503;-71
2024/01/02 03:43:50;;;;;;;10.93;10.02;;;;;;;5.28;100.00;100253.44;5029656;28;20045;-70
2024/01/02 03:46:16;;;;;;;1.42;1.27;;;;;;;5.84;100.00;100344.69;5021831;28;20037;-70
2024/01/02 03:48:41;;;;;;;22.67;21.63;;;;;;;5.12;100.00;100248.78;5030125;28;20056;-71
2024/01/02 03:51:07;;;;;;;1.25;1.15;;;;;;;5.79;100.00;100348.94;5018357;28;20040;-70
2024/01/02 03:53:32;;;;;;;4.43;4.22;;;;;;;5.22;100.00;100269.81;5023693;28;20091;-71
2024/01/02 03:55:58;;;;;;;25.55;21.40;;;;;;;5.22;100.00;100279.31;5026760;28;20060;-72
2024/01/02 03:58:25;;;;;;;2.83;2.65;;;;;;;5.63;100.00;100357.31;5024996;28;20056;-71
2024/01/02 04:00:51;;;;;;;2.97;2.85;;;;;;;5.63;100.00;100352.09;5023068;28;20053;-72
2024/01/02 04:03:18;;;;;;;2.35;2.20;;;;;;;5.79;100.00;100364.56;5032166;28;20047;-71
2024/01/02 04:05:43;;;;;;;0.90;0.80;;;;;;;5.21;100.00;100265.44;5035161;28;20095;-71
2024/01/02 04:08:09;;;;;;;3.22;3.03;;;;;;;4.93;100.00;100276.16;5027970;28;20511;-71
2024/01/02 04:10:36;;;;;;;1.83;1.73;;;;;;;5.55;100.00;100344.16;5029977;28;20080;-72
2024/01/02 04:13:01;;;;;;;2.38;2.17;;;;;;;5.56;100.00;100363.25;5030615;28;20136;-72
2024/01/02 04:15:27;;;;;;;5.97;5.68;;;;;;;5.63;100.00;100346.91;5024265;28;20172;-70
2024/01/02 04:17:52;;;;;;;0.30;0.30;;;;;;;4.83;100.00;100247.38;5028549;28;20036;-72
2024/01/02 04:20:18;;;;;;;5.80;4.35;;;;;;;5.25;100.00;100298.47;5020292;28;20049;-72
2024/01/02 04:22:43;;;;;;;2.78;1.27;;;;;;;5.54;100.00;100347.59;5026379;28;20512;-72
2024/01/02 04:25:09;;;;;;;1.55;1.48;;;;;;;5.07;100.00;100259.97;5022899;28;20565;-72
2024/01/02 04:27:34;;;;;;;14.93;13.98;;;;;;;5.64;100.00;100341.75;5023260;28;20064;-73
2024/01/02 04:30:00;;;;;;;2.10;2.03;;;;;;;5.75;100.00;100360.13;5029724;28;20065;-70
2024/01/02 04:32:25;;;;;;;2.53;2.33;;;;;;;5.66;100.00;100345.22;5026096;28;20045;-72
2024/01/02 04:34:51;;;;;;;1.95;1.75;;;;;;;5.60;100.00;100337.31;5027528;28;20478;-71
2024/01/02 04:37:16;;;;;;;0.57;0.57;;;;;;;5.88;100.00;100374.28;5027807;28;20140;-71
2024/01/02 04:39:42;;;;;;;1.38;1.23;;;;;;;5.87;100.00;100378.59;5020899;28;20119;-70
2024/01/02 04:42:07;;;;;;;0.85;0.85;;;;;;;5.25;100.00;100277.66;5035807;28;20477;-70
2024/01/02 04:44:33;;;;;;;7.53;7.13;;;;;;;5.42;100.00;100295.31;5020019;28;20061;-71
2024/01/02 04:46:59;;;;;;;2.33;2.25;;;;;;;5.81;100.00;100356.78;5027718;28;20080;-71
2024/01/02 04:49:24;;;;;;;0.30;0.30;;;;;;;5.81;100.00;100344.66;5028431;28;20041;-71
2024/01/02 04:51:50;;;;;;;5.97;5.68;;;;;;;5.80;100.00;100347.22;5027268;28;20045;-70
2024/01/02 04:54:17;;;;;;;0.75;0.75;;;;;;;5.89;100.00;100353.47;5027256;28;20072;-72
2024/01/02 04:56:43;;;;;;;1.95;1.85;;;;;;;5.85;100.00;100363.78;5025829;28;20485;-71
2024/01/02 04:59:09;;;;;;;0.73;0.73;;;;;;;5.77;100.00;100339.34;5025596;28;20071;-71
2024/01/02 05:01:37;;;;;;;4.40;4.05;;;;;;;5.36;100.00;100262.28;5002932;28;20413;-70
2024/01/02 05:04:03;;;;;;;0.50;0.50;;;;;;;5.36;100.00;100244.06;5030908;28;20049;-70
2024/01/02 05:06:29;;;;;;;0.30;0.30;;;;;;;5.94;100.00;100332.75;5027704;28;20535;-71
2024/01/02 05:08:55;;;;;;;0.30;0.30;;;;;;;6.07;100.00;100342.53;5030593;28;20021;-70
2024/01/02 05:11:20;;;;;;;1.40;1.15;;;;;;;5.96;100.00;100336.25;5025466;28;20049;-72
2024/01/02 05:13:47;;;;;;;0.73;0.63;;;;;;;5.62;100.00;100265.34;5023431;28;20552;-70
2024/01/02 05:16:12;;;;;;;2.00;1.90;;;;;;;5.54;100.00;100261.72;5025830;28;20045;-73
2024/01/02 05:18:38;;;;;;;1.13;0.93;;;;;;;5.92;100.00;100352.63;5024160;28;20493;-71
2024/01/02 05:21:03;;;;;;;3.50;3.30;;;;;;;5.89;100.00;100345.66;5025983;28;20072;-70
2024/01/02 05:23:29;;;;;;;2.17;2.08;;;;;;;5.92;100.00;100356.13;5032727;28;20068;-71
2024/01/02 05:25:55;;;;;;;0.77;0.73;;;;;;;5.85;100.00;100341.25;5036825;28;20052;-71
2024/01/02 05:28:20;;;;;;;3.83;3.53;;;;;;;5.33;100.00;100264.81;5033250;28;20041;-73
2024/01/02 05:30:46;;;;;;;1.40;1.30;;;;;;;5.46;100.00;100281.53;5034347;28;20053;-72
2024/01/02 05:33:12;;;;;;;6.10;5.78;;;;;;;5.11;100.00;100275.66;5020397;28;20033;-71
2024/01/02 05:35:37;;;;;;;0.30;0.30;;;;;;;5.48;100.00;100288.50;5038338;28;20045;-73
2024/01/02 05:38:03;;;;;;;0.35;0.35;;;;;;;5.35;100.00;100276.13;5026125;28;20085;-72
2024/01/02 05:40:29;;;;;;;14.55;8.68;;;;;;;5.74;100.00;100354.94;5029561;28;20067;-70
2024/01/02 05:42:55;;;;;;;0.35;0.35;;;;;;;5.93;100.00;100370.03;5030955;28;20045;-70
2024/01/02 05:45:20;;;;;;;0.35;0.35;;;;;;;5.45;100.00;100311.84;5032141;28;20116;-71
2024/01/02 05:47:46;;;;;;;0.55;0.55;;;;;;;5.34;100.00;100296.88;5031500;28;20367;-71
2024/01/02 05:50:12;;;;;;;1.92;1.77;;;;;;;5.38;100.00;100294.38;5024799;28;20130;-71
2024/01/02 05:52:41;;;;;;;0.82;0.82;;;;;;;5.22;100.00;100302.72;5026049;28;20084;-71
2024/01/02 05:55:08;;;;;;;0.30;0.30;;;;;;;5.23;100.00;100294.97;5031099;28;20065;-71
2024/01/02 05:57:33;;;;;;;3.42;3.10;;;;;;;5.74;100.00;100367.94;5023662;28;20076;-71
2024/01/02 05:59:59;;;;;;;2.10;2.00;;;;;;;5.84;100.00;100364.66;5027631;28;20043;-71
2024/01/02 06:02:24;;;;;;;0.30;0.30;;;;;;;5.83;100.00;100357.66;5024987;28;20072;-72
2024/01/02 06:04:50;;;;;;;1.17;1.13;;;;;;;5.92;100.00;100383.88;5026288;28;20084;-71
2024/01/02 06:07:15;;;;;;;0.30;0.30;;;;;;;5.71;100.00;100374.84;5033826;28;20053;-73
2024/01/02 06:09:41;;;;;;;0.30;0.30;;;;;;;5.35;100.00;100296.94;5024004;28;20459;-72
2024/01/02 06:12:08;;;;;;;0.30;0.30;;;;;;;6.04;100.00;100401.50;5032045;28;20033;-70
2024/01/02 06:14:33;;;;;;;0.88;0.88;;;;;;;5.75;100.00;100374.91;5032143;28;20060;-73
2024/01/02 06:16:59;;;;;;;0.50;0.40;;;;;;;5.64;100.00;100333.03;5031517;28;20054;-73
2024/01/02 06:19:24;;;;;;;0.47;0.47;;;;;;;6.10;100.00;100405.09;5034586;28;20049;-71
2024/01/02 06:21:50;;;;;;;0.52;0.52;;;;;;;5.54;100.00;100302.50;5038486;28;20044;-71
2024/01/02 06:24:16;;;;;;;0.40;0.40;;;;;;;5.60;100.00;100318.22;5034735;28;20076;-73
2024/01/02 06:26:41;;;;;;;0.38;0.38;;;;;;;6.16;100.00;100426.88;5026852;28;20402;-72
2024/01/02 06:29:09;;;;;;;0.30;0.30;;;;;;;5.81;100.00;100365.47;5026092;28;20119;-69
2024/01/02 06:31:35;;;;;;;0.70;0.70;;;;;;;5.53;100.00;100308.56;5024237;28;20049;-74
2024/01/02 06:34:00;;;;;;;0.30;0.30;;;;;;;6.06;100.00;100391.97;5030223;28;20049;-71
2024/01/02 06:36:26;;;;;;;0.30;0.30;;;;;;;6.16;100.00;100421.66;5026945;28;20042;-72
2024/01/02 06:38:51;;;;;;;2.63;1.80;;;;;;;5.76;100.00;100356.72;5037339;28;20029;-71
2024/01/02 06:41:18;;;;;;;0.30;0.30;;;;;;;5.66;100.00;100327.00;5024929;28;20467;-72
2024/01/02 06:43:44;;;;;;;0.60;0.60;;;;;;;6.28;100.00;100434.94;5032579;28;20139;-72
2024/01/02 06:46:12;;;;;;;1.38;0.63;;;;;;;6.29;100.00;100440.16;5026327;28;20136;-70
2024/01/02 06:48:38;;;;;;;0.93;0.93;;;;;;;6.32;100.00;100419.38;5033465;28;20076;-71
2024/01/02 06:51:04;;;;;;;0.32;0.32;;;;;;;6.31;100.00;100408.94;5026227;28;20041;-71
2024/01/02 06:53:29;;;;;;;1.05;1.05;;;;;;;5.89;100.00;100336.97;5024918;28;20749;-74
2024/01/02 06:55:56;;;;;;;1.65;1.55;;;;;;;6.38;100.00;100402.97;5022827;28;20182;-71
2024/01/02 06:58:22;;;;;;;0.25;0.25;;;;;;;5.86;100.00;100324.78;5029872;28;20152;-72
2024/01/02 07:00:49;;;;;;;2.25;2.15;;;;;;;6.26;100.00;100382.78;5023584;28;20095;-72
2024/01/02 07:03:14;;;;;;;0.30;0.30;;;;;;;6.09;100.00;100372.09;5023436;28;20063;-73
2024/01/02 07:05:40;;;;;;;0.30;0.30;;;;;;;5.96;100.00;100331.03;5022369;28;20527;-71
2024/01/02 07:08:06;;;;;;;0.80;0.80;;;;;;;6.22;100.00;100354.06;5011002;28;20049;-72
2024/01/02 07:10:31;;;;;;;0.40;0.40;;;;;;;5.90;100.00;100307.50;5021603;28;20553;-71
2024/01/02 07:12:57;;;;;;;0.40;0.40;;;;;;;6.31;100.00;100415.00;5015488;28;20056;-72
2024/01/02 07:15:22;;;;;;;0.38;0.38;;;;;;;6.30;100.00;100407.19;5022772;28;20044;-75
2024/01/02 07:17:48;;;;;;;0.30;0.30;;;;;;;5.89;100.00;100345.66;5035187;28;20025;-72
2024/01/02 07:20:14;;;;;;;0.60;0.60;;;;;;;6.54;100.00;100436.25;5020176;28;20041;-71
2024/01/02 07:22:39;;;;;;;0.88;0.85;;;;;;;6.39;100.00;100435.13;5037551;28;20469;-71
2024/01/02 07:25:05;;;;;;;0.40;0.40;;;;;;;6.45;100.00;100430.00;5026112;28;20333;-72
2024/01/02 07:27:31;;;;;;;0.43;0.40;;;;;;;6.46;100.00;100434.38;5011952;28;20036;-70
2024/01/02 07:29:56;;;;;;;0.30;0.30;;;;;;;6.63;100.00;100430.31;5016355;28;20137;-72
2024/01/02 07:32:22;;;;;;;0.30;0.30;;;;;;;6.53;100.00;100429.31;5017917;28;20192;-72
2024/01/02 07:34:47;;;;;;;0.30;0.30;;;;;;;6.08;100.00;100346.88;5023446;28;20049;-72
2024/01/02 07:37:14;;;;;;;0.20;0.20;;;;;;;5.75;100.00;100328.91;5035102;28;20049;-72
2024/01/02 07:39:40;;;;;;;0.30;0.30;;;;;;;5.92;100.00;100319.69;5014481;28;20053;-74
2024/01/02 07:42:08;;;;;;;0.28;0.28;;;;;;;5.78;100.00;100328.06;5015282;28;20045;-72
2024/01/02 07:44:33;;;;;;;0.28;0.28;;;;;;;6.41;100.00;100404.75;5028994;28;20087;-72
2024/01/02 07:46:59;;;;;;;0.40;0.40;;;;;;;6.22;100.00;100391.41;4997298;28;20137;-73
2024/01/02 07:49:25;;;;;;;0.20;0.20;;;;;;;6.48;100.00;100411.81;5018472;28;20076;-73
2024/01/02 07:51:52;;;;;;;0.25;0.25;;;;;;;6.44;100.00;100446.47;5033114;28;20045;-71
2024/01/02 07:54:18;;;;;;;0.60;0.50;;;;;;;6.30;100.00;100425.44;5028570;28;20164;-73
2024/01/02 07:56:44;;;;;;;0.40;0.40;;;;;;;6.00;100.00;100369.31;5004325;28;20078;-72
2024/01/02 07:59:11;;;;;;;4.45;2.70;;;;;;;5.93;100.00;100357.88;5018495;28;20042;-73
2024/01/02 08:01:37;;;;;;;1.05;1.05;;;;;;;6.39;100.00;100429.91;5021355;28;20128;-73
2024/01/02 08:04:03;;;;;;;0.30;0.30;;;;;;;6.44;100.00;100452.59;5021375;28;20144;-72
2024/01/02 08:06:28;;;;;;;0.20;0.20;;;;;;;6.12;100.00;100385.16;5018740;28;20028;-72
2024/01/02 08:08:54;;;;;;;1.00;1.00;;;;;;;6.64;100.00;100473.78;5015901;28;20060;-75
2024/01/02 08:11:19;;;;;;;0.30;0.30;;;;;;;6.55;100.00;100458.88;5013639;28;20175;-74
2024/01/02 08:13:45;;;;;;;0.50;0.50;;;;;;;6.64;100.00;100475.50;5023013;28;20145;-73
2024/01/02 08:16:11;;;;;;;0.38;0.30;;;;;;;6.70;100.00;100473.91;5022594;28;20865;-73
2024/01/02 08:18:41;;;;;;;0.57;0.57;;;;;;;6.18;100.00;100352.25;5022142;28;20068;-73
2024/01/02 08:21:09;;;;;;;0.40;0.40;;;;;;;6.51;100.00;100449.25;5012676;28;20046;-73
2024/01/02 08:23:36;;;;;;;0.28;0.28;;;;;;;6.70;100.00;100463.47;5030505;28;20480;-73
2024/01/02 08:26:02;;;;;;;0.35;0.35;;;;;;;6.19;100.00;100373.13;5016927;28;20049;-72
2024/01/02 08:28:28;;;;;;;2.38;2.28;;;;;;;6.34;100.00;100394.25;5024930;28;20115;-74
2024/01/02 08:30:54;;;;;;;0.30;0.30;;;;;;;6.76;100.00;100454.84;5022609;28;20545;-73
2024/01/02 08:33:19;;;;;;;0.35;0.35;;;;;;;6.72;100.00;100451.34;5019926;28;20025;-74
2024/01/02 08:35:45;;;;;;;0.28;0.28;;;;;;;6.83;100.00;100467.13;5021911;28;20105;-72
2024/01/02 08:38:10;;;;;;;5.88;5.25;;;;;;;6.30;100.00;100363.75;5003867;28;20053;-73
2024/01/02 08:40:36;;;;;;;0.30;0.30;;;;;;;6.90;100.00;100455.06;5021544;28;20308;-73
2024/01/02 08:43:02;;;;;;;0.30;0.30;;;;;;;6.51;100.00;100397.13;5027171;28;20053;-73
2024/01/02 08:45:27;;;;;;;0.30;0.30;;;;;;;6.76;100.00;100421.81;5027908;28;20083;-73
2024/01/02 08:47:53;;;;;;;0.22;0.22;;;;;;;6.91;100.00;100449.03;5029867;28;20115;-73
2024/01/02 08:50:18;;;;;;;0.35;0.35;;;;;;;6.88;100.00;100438.53;5024222;28;20084;-73
2024/01/02 08:52:47;;;;;;;0.20;0.20;;;;;;;6.75;100.00;100399.22;5024706;28;20045;-73
2024/01/02 08:55:14;;;;;;;0.50;0.50;;;;;;;6.96;100.00;100429.97;5025218;28;20132;-73
2024/01/02 08:57:39;;;;;;;0.40;0.40;;;;;;;7.05;100.00;100418.78;5023083;28;20044;-73
2024/01/02 09:00:07;;;;;;;0.47;0.47;;;;;;;6.37;100.00;100304.81;5010394;28;20033;-73
2024/01/02 09:02:33;;;;;;;1.17;1.10;;;;;;;6.49;100.00;100395.34;5004687;28;20489;-72
2024/01/02 09:04:58;;;;;;;0.20;0.20;;;;;;;6.26;100.00;100324.59;5020554;28;20042;-72
2024/01/02 09:07:25;;;;;;;1.27;1.17;;;;;;;6.88;100.00;100382.03;5020273;28;20044;-73
2024/01/02 09:09:50;;;;;;;0.75;0.75;;;;;;;6.96;100.00;100369.09;5016832;28;20049;-73
2024/01/02 09:12:16;;;;;;;0.30;0.30;;;;;;;7.22;100.00;100407.72;5027493;28;20036;-73
2024/01/02 09:14:41;;;;;;;1.00;1.00;;;;;;;6.70;100.00;100322.66;5021051;28;20029;-73
2024/01/02 09:17:07;;;;;;;0.30;0.30;;;;;;;6.71;100.00;100347.88;5021329;28;20445;-73
2024/01/02 09:19:32;;;;;;;0.55;0.55;;;;;;;7.27;100.00;100419.09;5004197;28;20406;-74
2024/01/02 09:21:58;;;;;;;0.40;0.40;;;;;;;7.43;100.00;100435.84;5018412;28;20096;-73
2024/01/02 09:24:23;;;;;;;4.25;2.53;;;;;;;7.15;100.00;100367.63;5024777;28;20035;-74
2024/01/02 09:26:54;;;;;;;0.40;0.40;;;;;;;6.95;100.00;100316.06;5017619;28;20029;-74
2024/01/02 09:29:23;;;;;;;0.30;0.30;;;;;;;7.43;100.00;100379.28;5019395;28;20557;-73
2024/01/02 09:31:48;;;;;;;0.30;0.30;;;;;;;7.09;100.00;100303.16;5003876;28;20123;-72
2024/01/02 09:34:14;;;;;;;1.75;1.65;;;;;;;7.70;100.00;100409.16;5022911;28;20405;-73
2024/01/02 09:36:39;;;;;;;1.17;0.60;;;;;;;7.66;100.00;100418.72;5018193;28;20048;-73
2024/01/02 09:39:06;;;;;;;0.30;0.30;;;;;;;7.41;100.00;100407.09;5026515;28;20033;-78
2024/01/02 09:42:13;;;;;;;0.52;0.52;;;;;;;7.61;100.00;100412.56;5024874;28;20049;-71
2024/01/02 09:45:07;;;;;;;0.80;0.80;;;;;;;7.34;100.00;100423.53;4996930;28;20098;-72
2024/01/02 09:48:11;;;;;;;0.30;0.30;;;;;;;7.63;100.00;100426.50;5012434;28;20064;-73
2024/01/02 09:51:07;;;;;;;2.20;2.10;;;;;;;7.79;100.00;100424.94;5022202;28;20046;-73
2024/01/02 09:53:51;;;;;;;0.30;0.30;;;;;;;7.80;100.00;100416.28;5022142;28;20429;-74
2024/01/02 09:56:25;;;;;;;0.20;0.20;;;;;;;7.96;100.00;100394.69;5028730;28;20037;-73
2024/01/02 09:59:11;;;;;;;0.40;0.40;;;;;;;7.53;100.00;100334.13;5025505;28;20064;-73
2024/01/02 10:01:40;;;;;;;0.60;0.60;;;;;;;7.69;100.00;100417.88;5025960;28;20140;-73
2024/01/02 10:04:36;;;;;;;2.33;2.22;;;;;;;8.06;100.00;100415.69;5019875;28;20100;-74
2024/01/02 10:07:36;;;;;;;0.85;0.85;;;;;;;8.24;100.00;100402.75;5019642;28;20587;-71
2024/01/02 10:10:14;;;;;;;0.40;0.40;;;;;;;8.13;100.00;100404.44;5012144;28;20056;-70
2024/01/02 10:12:55;;;;;;;0.43;0.38;;;;;;;8.03;100.00;100379.94;5013699;28;20061;-73
2024/01/02 10:15:26;;;;;;;7.72;7.25;;;;;;;8.27;100.00;100387.13;5025091;28;20033;-73
2024/01/02 10:18:21;;;;;;;3.03;2.38;;;;;;;7.97;100.00;100336.31;5028976;28;20621;-72
2024/01/02 10:21:19;;;;;;;0.30;0.30;;;;;;;8.39;100.00;100394.19;5001718;28;20087;-75
2024/01/02 10:24:01;;;;;;;1.60;1.52;;;;;;;7.73;100.00;100317.81;4984423;28;20046;-73
2024/01/02 10:26:32;;;;;;;0.30;0.30;;;;;;;8.24;100.00;100390.59;5033593;28;20045;-72
2024/01/02 10:29:03;;;;;;;0.40;0.40;;;;;;;8.08;100.00;100388.69;5011160;28;20053;-72
2024/01/02 10:31:42;;;;;;;0.30;0.30;;;;;;;8.21;100.00;100390.53;5029482;28;20658;-75
2024/01/02 10:34:28;;;;;;;1.77;1.67;;;;;;;8.19;100.00;100394.91;5032692;28;20053;-72
2024/01/02 10:37:02;;;;;;;1.20;1.20;;;;;;;8.37;100.00;100390.69;5023411;28;20052;-72
2024/01/02 10:39:35;;;;;;;0.82;0.82;;;;;;;8.13;100.00;100292.91;5008908;28;20088;-72
2024/01/02 10:42:32;;;;;;;3.67;3.38;;;;;;;8.72;100.00;100377.06;5034565;28;20047;-72
2024/01/02 10:45:21;;;;;;;0.75;0.75;;;;;;;9.05;100.00;100365.91;5030063;28;20144;-73
2024/01/02 10:48:18;;;;;;;0.30;0.30;;;;;;;9.51;100.00;100361.75;5022065;28;20049;-71
2024/01/02 10:50:51;;;;;;;1.10;0.93;;;;;;;9.36;100.00;100359.06;5025640;28;20049;-72
2024/01/02 10:53:48;;;;;;;1.67;1.00;;;;;;;9.78;100.00;100356.59;5028912;28;20572;-72
2024/01/02 10:56:59;;;;;;;0.30;0.30;;;;;;;9.87;100.00;100326.03;5019304;28;20046;-72
2024/01/02 10:59:58;;;;;;;0.20;0.20;;;;;;;9.97;100.00;100319.03;5021838;28;20045;-72
2024/01/02 11:02:24;;;;;;;0.30;0.30;;;;;;;10.24;100.00;100336.56;5022556;28;20042;-73
2024/01/02 11:05:04;;;;;;;2.33;2.17;;;;;;;10.09;100.00;100336.53;5028415;28;20080;-71
2024/01/02 11:07:35;;;;;;;0.28;0.28;;;;;;;10.25;100.00;100319.06;5026471;28;20114;-72
2024/01/02 11:10:14;;;;;;;0.20;0.20;;;;;;;10.30;100.00;100307.75;5030203;28;20382;-72
2024/01/02 11:13:03;;;;;;;2.85;2.22;;;;;;;9.87;100.00;100231.69;5025470;28;20124;-72
2024/01/02 11:15:34;;;;;;;0.85;0.85;;;;;;;10.33;100.00;100299.88;5029564;28;20041;-72
2024/01/02 11:18:03;;;;;;;1.83;1.65;;;;;;;10.04;100.00;100236.03;5026460;28;20086;-72
2024/01/02 11:20:47;;;;;;;2.03;1.42;;;;;;;10.47;100.00;100306.84;5034796;28;20072;-72
2024/01/02 11:23:15;;;;;;;2.28;2.10;;;;;;;9.39;100.00;100229.88;5034428;28;20129;-75
2024/01/02 11:25:54;;;;;;;0.30;0.30;;;;;;;10.10;100.00;100306.84;5039414;28;20114;-72
2024/01/02 11:28:22;;;;;;;0.52;0.52;;;;;;;10.29;100.00;100308.59;5027047;28;20071;-72